Time;durP1;ratioP1;P1;durP2;ratioP2;P2;SDS_P1;SDS_P2;PMS_P1;PMS_P2;Temp;Humidity;BMP_temperature;BMP_pressure;BME280_temperature;BME280_humidity;BME280_pressure;Samples;Min_cycle;Max_cycle;Signal;HPM_P1;HPM_P2
2023/08/31 00:02:24;;;;;;;;;;;16.60;99.90;;;;;;5030666;28;19975;-67
2023/08/31 00:04:52;;;;;;;;;;;16.70;99.90;;;;;;5027337;28;20285;-68
2023/08/31 00:07:20;;;;;;;;;;;16.80;99.90;;;;;;5026435;28;19925;-67
2023/08/31 00:09:49;;;;;;;;;;;16.80;99.90;;;;;;5030849;28;19925;-67
2023/08/31 00:12:17;;;;;;;;;;;16.60;99.90;;;;;;5029769;28;19925;-67
2023/08/31 00:14:46;;;;;;;;;;;16.60;99.90;;;;;;5029183;28;19971;-69
2023/08/31 00:17:14;;;;;;;;;;;16.40;99.90;;;;;;5030564;28;20140;-67
2023/08/31 00:19:42;;;;;;;;;;;16.50;99.90;;;;;;5030140;28;19933;-67
2023/08/31 00:22:09;;;;;;;;;;;16.50;99.90;;;;;;5031534;28;19925;-67
2023/08/31 00:24:37;;;;;;;;;;;16.40;99.90;;;;;;5030492;28;20300;-67
2023/08/31 00:27:06;;;;;;;;;;;16.20;99.90;;;;;;5028654;28;19957;-67
2023/08/31 00:29:34;;;;;;;;;;;16.10;99.90;;;;;;5025924;28;20016;-67
2023/08/31 00:32:03;;;;;;;;;;;15.80;99.90;;;;;;5033183;28;19971;-67
2023/08/31 00:34:31;;;;;;;;;;;16.00;99.90;;;;;;5030305;28;19940;-67
2023/08/31 00:36:59;;;;;;;;;;;15.90;99.90;;;;;;5029221;28;19932;-67
2023/08/31 00:39:27;;;;;;;;;;;16.00;99.90;;;;;;5022525;28;19929;-68
2023/08/31 00:41:55;;;;;;;;;;;16.10;99.90;;;;;;5031698;28;19929;-67
2023/08/31 00:44:24;;;;;;;;;;;16.00;99.90;;;;;;5015658;28;20388;-67
2023/08/31 00:46:52;;;;;;;;;;;16.00;99.90;;;;;;5018650;28;20498;-69
2023/08/31 00:49:21;;;;;;;;;;;15.80;99.90;;;;;;5027791;28;19940;-68
2023/08/31 00:51:50;;;;;;;;;;;16.00;99.90;;;;;;5041658;28;20276;-66
2023/08/31 00:54:19;;;;;;;;;;;15.90;99.90;;;;;;5032393;28;19925;-68
2023/08/31 00:56:47;;;;;;;;;;;16.00;99.90;;;;;;5033576;28;19925;-68
2023/08/31 00:59:16;;;;;;;;;;;16.00;99.90;;;;;;5037673;28;19932;-68
2023/08/31 01:01:48;;;;;;;;;;;15.90;99.90;;;;;;5026827;28;20277;-68
2023/08/31 01:04:19;;;;;;;;;;;15.70;99.90;;;;;;5032823;28;20295;-67
2023/08/31 01:06:52;;;;;;;;;;;15.60;99.90;;;;;;5034064;28;20023;-67
2023/08/31 01:09:23;;;;;;;;;;;15.80;99.90;;;;;;5023437;28;19932;-66
2023/08/31 01:11:57;;;;;;;;;;;15.90;99.90;;;;;;5033068;28;20430;-67
2023/08/31 01:14:26;;;;;;;;;;;16.00;99.90;;;;;;5033724;28;19925;-67
2023/08/31 01:16:54;;;;;;;;;;;16.10;99.90;;;;;;5032875;28;19933;-68
2023/08/31 01:19:31;;;;;;;;;;;16.20;99.90;;;;;;5034524;28;19929;-68
2023/08/31 01:22:01;;;;;;;;;;;16.20;99.90;;;;;;5033018;28;19955;-68
2023/08/31 01:24:31;;;;;;;;;;;16.30;99.90;;;;;;5033444;28;19929;-68
2023/08/31 01:26:59;;;;;;;;;;;16.30;99.90;;;;;;5033056;28;19929;-68
2023/08/31 01:29:27;;;;;;;;;;;16.30;99.90;;;;;;5032882;28;19972;-68
2023/08/31 01:31:54;;;;;;;;;;;16.40;99.90;;;;;;5040588;28;20044;-69
2023/08/31 01:34:22;;;;;;;;;;;16.40;99.90;;;;;;5043206;28;19936;-67
2023/08/31 01:36:55;;;;;;;;;;;16.40;99.90;;;;;;5025995;28;20285;-68
2023/08/31 01:39:25;;;;;;;;;;;16.40;99.90;;;;;;5029442;28;19929;-70
2023/08/31 01:41:56;;;;;;;;;;;16.20;99.90;;;;;;5027515;28;19983;-68
2023/08/31 01:44:26;;;;;;;;;;;16.10;99.90;;;;;;5032760;28;19925;-67
2023/08/31 01:46:54;;;;;;;;;;;16.00;99.90;;;;;;5032212;28;19936;-69
2023/08/31 01:49:21;;;;;;;;;;;15.90;99.90;;;;;;5039159;28;20083;-68
2023/08/31 01:51:49;;;;;;;;;;;15.80;99.90;;;;;;5023686;28;19933;-68
2023/08/31 01:54:17;;;;;;;;;;;15.80;99.90;;;;;;5042967;28;20457;-68
2023/08/31 01:56:45;;;;;;;;;;;15.80;99.90;;;;;;5032758;28;19931;-67
2023/08/31 01:59:14;;;;;;;;;;;15.70;99.90;;;;;;5032695;28;19931;-68
2023/08/31 02:01:42;;;;;;;;;;;15.60;99.90;;;;;;5043925;28;19925;-68
2023/08/31 02:04:09;;;;;;;;;;;15.70;99.90;;;;;;5047607;28;19932;-68
2023/08/31 02:06:37;;;;;;;;;;;15.60;99.90;;;;;;5032824;28;19929;-68
2023/08/31 02:09:06;;;;;;;;;;;15.90;99.90;;;;;;5025690;28;19925;-68
2023/08/31 02:11:37;;;;;;;;;;;15.90;99.90;;;;;;5029138;28;19956;-68
2023/08/31 02:14:05;;;;;;;;;;;16.10;99.90;;;;;;5035454;28;20020;-68
2023/08/31 02:16:34;;;;;;;;;;;16.10;99.90;;;;;;5038343;28;19929;-69
2023/08/31 02:19:02;;;;;;;;;;;16.00;99.90;;;;;;5041807;28;20228;-68
2023/08/31 02:21:30;;;;;;;;;;;16.00;99.90;;;;;;5026996;28;19925;-68
2023/08/31 02:23:58;;;;;;;;;;;16.10;99.90;;;;;;5029636;28;19925;-69
2023/08/31 02:26:26;;;;;;;;;;;16.00;99.90;;;;;;5028730;28;19925;-68
2023/08/31 02:28:54;;;;;;;;;;;16.20;99.90;;;;;;5035320;28;19925;-69
2023/08/31 02:31:21;;;;;;;;;;;16.20;99.90;;;;;;5025958;28;19936;-68
2023/08/31 02:33:52;;;;;;;;;;;16.20;99.90;;;;;;5026433;28;20027;-69
2023/08/31 02:36:21;;;;;;;;;;;16.20;99.90;;;;;;5036090;28;19929;-70
2023/08/31 02:38:49;;;;;;;;;;;16.30;99.90;;;;;;5030239;28;20410;-67
2023/08/31 02:41:17;;;;;;;;;;;16.30;99.90;;;;;;5032037;28;20299;-68
2023/08/31 02:43:45;;;;;;;;;;;16.30;99.90;;;;;;5028198;28;19932;-68
2023/08/31 02:46:13;;;;;;;;;;;16.30;99.90;;;;;;5036896;28;20390;-67
2023/08/31 02:48:41;;;;;;;;;;;16.10;99.90;;;;;;5026961;28;19925;-68
2023/08/31 02:51:10;;;;;;;;;;;16.20;99.90;;;;;;5030893;28;19933;-67
2023/08/31 02:53:38;;;;;;;;;;;16.40;99.90;;;;;;5037821;28;19932;-68
2023/08/31 02:56:06;;;;;;;;;;;16.40;99.90;;;;;;5033718;28;19932;-67
2023/08/31 02:58:33;;;;;;;;;;;16.30;99.90;;;;;;5028126;28;20360;-67
2023/08/31 03:01:09;;;;;;;;;;;16.40;99.90;;;;;;5025694;28;19975;-67
2023/08/31 03:03:36;;;;;;;;;;;16.60;99.90;;;;;;5023035;28;20015;-67
2023/08/31 03:06:04;;;;;;;;;;;16.40;99.90;;;;;;5027035;28;19979;-67
2023/08/31 03:08:33;;;;;;;;;;;16.40;99.90;;;;;;5040622;28;19933;-67
2023/08/31 03:11:01;;;;;;;;;;;16.30;99.90;;;;;;5031207;28;19967;-67
2023/08/31 03:13:29;;;;;;;;;;;16.30;99.90;;;;;;5029234;28;19940;-67
2023/08/31 03:15:57;;;;;;;;;;;16.40;99.90;;;;;;5023058;28;19948;-67
2023/08/31 03:18:28;;;;;;;;;;;16.40;99.90;;;;;;5039991;28;19972;-67
2023/08/31 03:20:56;;;;;;;;;;;16.40;99.90;;;;;;5021210;28;19925;-67
2023/08/31 03:23:24;;;;;;;;;;;16.30;99.90;;;;;;5042037;28;20011;-68
2023/08/31 03:25:53;;;;;;;;;;;16.40;99.90;;;;;;5037463;28;19933;-68
2023/08/31 03:28:21;;;;;;;;;;;16.60;99.90;;;;;;5021630;28;20012;-69
2023/08/31 03:30:54;;;;;;;;;;;16.60;99.90;;;;;;5023651;28;19929;-68
2023/08/31 03:33:22;;;;;;;;;;;16.50;99.90;;;;;;5023250;28;19925;-69
2023/08/31 03:35:50;;;;;;;;;;;16.40;99.90;;;;;;5031998;28;19933;-70
2023/08/31 03:38:18;;;;;;;;;;;16.30;99.90;;;;;;5021577;28;19926;-68
2023/08/31 03:40:54;;;;;;;;;;;16.50;99.90;;;;;;5026199;28;20312;-68
2023/08/31 03:43:22;;;;;;;;;;;16.60;99.90;;;;;;5026922;28;19925;-67
2023/08/31 03:45:55;;;;;;;;;;;16.60;99.90;;;;;;5020661;28;19929;-70
2023/08/31 03:48:23;;;;;;;;;;;16.70;99.90;;;;;;5026518;28;19925;-70
2023/08/31 03:50:51;;;;;;;;;;;16.80;99.90;;;;;;5035178;28;19971;-70
2023/08/31 03:53:19;;;;;;;;;;;16.70;99.90;;;;;;5032392;28;19926;-69
2023/08/31 03:55:47;;;;;;;;;;;16.60;99.90;;;;;;5019651;28;20351;-67
2023/08/31 03:58:16;;;;;;;;;;;16.50;99.90;;;;;;5038187;28;19926;-67
2023/08/31 04:00:44;;;;;;;;;;;16.40;99.90;;;;;;5026516;28;20403;-68
2023/08/31 04:03:12;;;;;;;;;;;16.30;99.90;;;;;;5023855;28;20021;-70
2023/08/31 04:05:40;;;;;;;;;;;16.20;99.90;;;;;;5020383;28;19933;-68
2023/08/31 04:08:08;;;;;;;;;;;16.10;99.90;;;;;;5021456;28;19941;-67
2023/08/31 04:10:36;;;;;;;;;;;16.20;99.90;;;;;;5019430;28;20339;-67
2023/08/31 04:13:04;;;;;;;;;;;16.20;99.90;;;;;;5018981;28;19995;-69
2023/08/31 04:15:34;;;;;;;;;;;16.00;99.90;;;;;;5019155;28;19932;-68
2023/08/31 04:18:02;;;;;;;;;;;16.00;99.90;;;;;;5018659;28;19999;-67
2023/08/31 04:20:30;;;;;;;;;;;16.10;99.90;;;;;;5019633;28;20419;-67
2023/08/31 04:22:58;;;;;;;;;;;16.10;99.90;;;;;;5016508;28;19940;-67
2023/08/31 04:25:26;;;;;;;;;;;15.90;99.90;;;;;;5023727;28;19984;-67
2023/08/31 04:27:53;;;;;;;;;;;15.80;99.90;;;;;;5024734;28;20012;-68
2023/08/31 04:30:21;;;;;;;;;;;15.70;99.90;;;;;;5026607;28;20305;-68
2023/08/31 04:32:50;;;;;;;;;;;15.50;99.90;;;;;;5019812;28;19956;-67
2023/08/31 04:35:18;;;;;;;;;;;15.20;99.90;;;;;;5023659;28;20292;-67
2023/08/31 04:37:46;;;;;;;;;;;15.10;99.90;;;;;;5024844;28;19935;-68
2023/08/31 04:40:14;;;;;;;;;;;15.10;99.90;;;;;;5023522;28;20437;-67
2023/08/31 04:42:42;;;;;;;;;;;15.30;99.90;;;;;;5022644;28;19933;-69
2023/08/31 04:45:11;;;;;;;;;;;15.10;99.90;;;;;;5025114;28;19928;-67
2023/08/31 04:47:39;;;;;;;;;;;15.20;99.90;;;;;;5021870;28;19940;-67
2023/08/31 04:50:09;;;;;;;;;;;15.10;99.90;;;;;;5022315;28;19968;-69
2023/08/31 04:52:37;;;;;;;;;;;15.00;99.90;;;;;;5021745;28;19929;-68
2023/08/31 04:55:08;;;;;;;;;;;15.20;99.90;;;;;;5023178;28;20224;-69
2023/08/31 04:57:36;;;;;;;;;;;15.50;99.90;;;;;;5025684;28;19942;-68
2023/08/31 05:00:04;;;;;;;;;;;15.70;99.90;;;;;;5025557;28;19941;-70
2023/08/31 05:02:32;;;;;;;;;;;15.70;99.90;;;;;;5023465;28;19957;-66
2023/08/31 05:05:00;;;;;;;;;;;15.80;99.90;;;;;;5025280;28;19933;-67
2023/08/31 05:07:29;;;;;;;;;;;15.80;99.90;;;;;;5023841;28;20446;-67
2023/08/31 05:09:57;;;;;;;;;;;15.70;99.90;;;;;;5025626;28;20304;-66
2023/08/31 05:12:25;;;;;;;;;;;15.60;99.90;;;;;;5023229;28;20400;-67
2023/08/31 05:14:53;;;;;;;;;;;15.40;99.90;;;;;;5022415;28;20370;-69
2023/08/31 05:17:20;;;;;;;;;;;15.70;99.90;;;;;;5020848;28;19991;-69
2023/08/31 05:19:50;;;;;;;;;;;15.50;99.90;;;;;;5022422;28;19929;-68
2023/08/31 05:22:18;;;;;;;;;;;15.40;99.90;;;;;;5020360;28;20335;-68
2023/08/31 05:24:48;;;;;;;;;;;15.40;99.90;;;;;;5023832;28;19937;-67
2023/08/31 05:27:16;;;;;;;;;;;15.30;99.90;;;;;;5023648;28;19979;-67
2023/08/31 05:29:43;;;;;;;;;;;15.10;99.90;;;;;;5023185;28;19991;-67
2023/08/31 05:32:11;;;;;;;;;;;15.10;99.90;;;;;;5022609;28;19940;-67
2023/08/31 05:34:39;;;;;;;;;;;15.30;99.90;;;;;;5022739;28;19940;-68
2023/08/31 05:37:08;;;;;;;;;;;15.50;99.90;;;;;;5023987;28;20493;-68
2023/08/31 05:39:35;;;;;;;;;;;15.60;99.90;;;;;;5025060;28;20423;-67
2023/08/31 05:42:05;;;;;;;;;;;15.70;99.90;;;;;;5022004;28;19944;-67
2023/08/31 05:44:33;;;;;;;;;;;15.80;99.90;;;;;;5022381;28;20080;-68
2023/08/31 05:47:01;;;;;;;;;;;15.60;99.90;;;;;;5022715;28;19940;-63
2023/08/31 05:49:28;;;;;;;;;;;15.50;99.90;;;;;;5023140;28;19933;-64
2023/08/31 05:51:56;;;;;;;;;;;15.10;99.90;;;;;;5021079;28;19952;-63
2023/08/31 05:54:24;;;;;;;;;;;14.80;99.90;;;;;;5025143;28;20514;-64
2023/08/31 05:56:52;;;;;;;;;;;14.50;99.90;;;;;;5022610;28;19929;-66
2023/08/31 05:59:21;;;;;;;;;;;14.40;99.90;;;;;;5022935;28;20411;-64
2023/08/31 06:01:49;;;;;;;;;;;14.20;99.90;;;;;;5019640;28;19944;-64
2023/08/31 06:04:16;;;;;;;;;;;14.10;99.90;;;;;;5021159;28;19944;-65
2023/08/31 06:06:44;;;;;;;;;;;14.10;99.90;;;;;;5022113;28;19933;-64
2023/08/31 06:09:12;;;;;;;;;;;14.10;99.90;;;;;;5022756;28;20461;-64
2023/08/31 06:11:46;;;;;;;;;;;14.00;99.90;;;;;;5020822;28;19987;-63
2023/08/31 06:14:14;;;;;;;;;;;14.00;99.90;;;;;;5022438;28;19941;-63
2023/08/31 06:16:43;;;;;;;;;;;14.00;99.90;;;;;;5020654;28;19933;-65
2023/08/31 06:19:15;;;;;;;;;;;14.00;99.90;;;;;;5021067;28;20024;-65
2023/08/31 06:21:43;;;;;;;;;;;14.10;99.90;;;;;;5017457;28;19948;-65
2023/08/31 06:24:12;;;;;;;;;;;14.20;99.90;;;;;;5020663;28;19940;-65
2023/08/31 06:26:40;;;;;;;;;;;14.20;99.90;;;;;;5022348;28;19933;-65
2023/08/31 06:29:10;;;;;;;;;;;14.30;99.90;;;;;;5022933;28;19933;-65
2023/08/31 06:31:38;;;;;;;;;;;14.30;99.90;;;;;;5019217;28;20367;-65
2023/08/31 06:34:07;;;;;;;;;;;14.40;99.90;;;;;;5021007;28;19932;-64
2023/08/31 06:36:35;;;;;;;;;;;14.40;99.90;;;;;;5022542;28;20381;-64
2023/08/31 06:39:04;;;;;;;;;;;14.50;99.90;;;;;;5021475;28;19940;-65
2023/08/31 06:41:32;;;;;;;;;;;14.50;99.90;;;;;;5018796;28;19933;-65
2023/08/31 06:44:00;;;;;;;;;;;14.50;99.90;;;;;;5021237;28;19937;-65
2023/08/31 06:46:28;;;;;;;;;;;14.50;99.90;;;;;;5021604;28;19933;-65
2023/08/31 06:48:56;;;;;;;;;;;14.50;99.90;;;;;;5020380;28;19975;-65
2023/08/31 06:51:25;;;;;;;;;;;14.50;99.90;;;;;;5020787;28;19933;-65
2023/08/31 06:53:53;;;;;;;;;;;14.50;99.90;;;;;;5019793;28;19929;-66
2023/08/31 06:56:21;;;;;;;;;;;14.50;99.90;;;;;;5021875;28;19932;-65
2023/08/31 06:58:49;;;;;;;;;;;14.50;99.90;;;;;;5020763;28;19933;-66
2023/08/31 07:01:17;;;;;;;;;;;14.60;99.90;;;;;;5018797;28;19933;-67
2023/08/31 07:03:45;;;;;;;;;;;14.60;99.90;;;;;;5020651;28;19940;-66
2023/08/31 07:06:13;;;;;;;;;;;14.70;99.90;;;;;;5019680;28;19933;-65
2023/08/31 07:08:45;;;;;;;;;;;14.60;99.90;;;;;;5020638;28;20027;-65
2023/08/31 07:11:12;;;;;;;;;;;14.60;99.90;;;;;;5019439;28;19933;-65
2023/08/31 07:13:40;;;;;;;;;;;14.70;99.90;;;;;;5020254;28;19935;-65
2023/08/31 07:16:08;;;;;;;;;;;14.90;99.90;;;;;;5019853;28;19976;-65
2023/08/31 07:18:37;;;;;;;;;;;15.00;99.90;;;;;;5019717;28;20039;-64
2023/08/31 07:21:05;;;;;;;;;;;15.30;99.90;;;;;;5019172;28;19929;-63
2023/08/31 07:23:33;;;;;;;;;;;15.50;99.90;;;;;;5018876;28;19945;-62
2023/08/31 07:26:04;;;;;;;;;;;15.70;99.90;;;;;;5019999;28;19933;-64
2023/08/31 07:28:32;;;;;;;;;;;15.70;99.90;;;;;;5021373;28;20020;-66
2023/08/31 07:31:04;;;;;;;;;;;15.70;99.90;;;;;;5020909;28;20376;-64
2023/08/31 07:33:32;;;;;;;;;;;15.60;99.90;;;;;;5018533;28;20892;-65
2023/08/31 07:36:03;;;;;;;;;;;15.50;99.90;;;;;;5021235;28;20020;-65
2023/08/31 07:38:31;;;;;;;;;;;15.20;99.90;;;;;;5019759;28;20327;-65
2023/08/31 07:40:59;;;;;;;;;;;15.20;99.90;;;;;;5018825;28;19936;-66
2023/08/31 07:43:28;;;;;;;;;;;15.20;99.90;;;;;;5016653;28;20540;-65
2023/08/31 07:45:55;;;;;;;;;;;15.30;99.90;;;;;;5018291;28;19979;-65
2023/08/31 07:48:24;;;;;;;;;;;15.50;99.90;;;;;;5019822;28;19937;-64
2023/08/31 07:50:51;;;;;;;;;;;15.60;99.90;;;;;;5019387;28;19933;-66
2023/08/31 07:53:19;;;;;;;;;;;15.50;99.90;;;;;;5016517;28;19975;-65
2023/08/31 07:55:54;;;;;;;;;;;15.50;99.90;;;;;;5017971;28;20050;-66
2023/08/31 07:58:22;;;;;;;;;;;15.40;99.90;;;;;;5020039;28;19925;-66
2023/08/31 08:00:56;;;;;;;;;;;15.40;99.90;;;;;;5023423;28;19929;-65
2023/08/31 08:03:27;;;;;;;;;;;15.50;99.90;;;;;;5022244;28;21375;-66
2023/08/31 08:05:56;;;;;;;;;;;15.70;99.90;;;;;;5023188;28;20027;-65
2023/08/31 08:08:24;;;;;;;;;;;15.90;99.90;;;;;;5021433;28;19933;-66
2023/08/31 08:10:53;;;;;;;;;;;16.10;99.90;;;;;;5022501;28;19925;-67
2023/08/31 08:13:21;;;;;;;;;;;16.30;99.90;;;;;;5020327;28;19936;-68
2023/08/31 08:15:48;;;;;;;;;;;16.40;99.90;;;;;;5023401;28;19945;-61
2023/08/31 08:18:18;;;;;;;;;;;16.50;99.90;;;;;;5023129;28;19941;-64
2023/08/31 08:20:48;;;;;;;;;;;16.30;99.90;;;;;;5022089;28;19929;-64
2023/08/31 08:23:15;;;;;;;;;;;16.20;99.90;;;;;;5023875;28;19933;-65
2023/08/31 08:25:43;;;;;;;;;;;16.20;99.90;;;;;;5024522;28;19975;-61
2023/08/31 08:28:11;;;;;;;;;;;16.40;99.90;;;;;;5023673;28;20312;-63
2023/08/31 08:30:39;;;;;;;;;;;16.60;99.90;;;;;;5023315;28;19933;-64
2023/08/31 08:33:07;;;;;;;;;;;17.00;99.90;;;;;;5020822;28;20424;-64
2023/08/31 08:35:37;;;;;;;;;;;17.20;99.90;;;;;;5023548;28;19940;-64
2023/08/31 08:38:05;;;;;;;;;;;17.20;99.90;;;;;;5022182;28;19933;-64
2023/08/31 08:40:33;;;;;;;;;;;17.20;99.90;;;;;;5024080;28;19940;-63
2023/08/31 08:43:01;;;;;;;;;;;17.20;99.90;;;;;;5019622;28;19987;-64
2023/08/31 08:45:33;;;;;;;;;;;17.40;99.90;;;;;;5021817;28;20407;-63
2023/08/31 08:48:01;;;;;;;;;;;17.40;99.90;;;;;;5022436;28;19940;-65
2023/08/31 08:50:33;;;;;;;;;;;17.40;99.90;;;;;;5023606;28;19939;-64
2023/08/31 08:53:03;;;;;;;;;;;17.50;99.90;;;;;;5020548;28;19933;-64
2023/08/31 08:55:31;;;;;;;;;;;17.30;99.90;;;;;;5022622;28;20501;-64
2023/08/31 08:57:59;;;;;;;;;;;17.10;99.90;;;;;;5021132;28;19952;-65
2023/08/31 09:00:28;;;;;;;;;;;17.00;99.90;;;;;;5019312;28;20241;-64
2023/08/31 09:02:56;;;;;;;;;;;16.90;99.90;;;;;;5019609;28;19940;-65
2023/08/31 09:05:24;;;;;;;;;;;17.00;99.90;;;;;;5020232;28;19956;-64
2023/08/31 09:08:03;;;;;;;;;;;17.00;99.90;;;;;;5020477;28;20192;-65
2023/08/31 09:10:36;;;;;;;;;;;17.00;99.90;;;;;;5020173;28;20002;-65
2023/08/31 09:13:06;;;;;;;;;;;17.10;99.90;;;;;;5020576;28;19980;-64
2023/08/31 09:15:37;;;;;;;;;;;17.10;99.90;;;;;;5020948;28;20412;-64
2023/08/31 09:18:05;;;;;;;;;;;17.20;99.90;;;;;;5022903;28;19933;-66
2023/08/31 09:20:43;;;;;;;;;;;17.20;99.90;;;;;;5023765;28;20026;-64
2023/08/31 09:23:12;;;;;;;;;;;17.40;99.90;;;;;;5019471;28;19952;-65
2023/08/31 09:25:44;;;;;;;;;;;17.50;99.90;;;;;;5022694;28;19964;-64
2023/08/31 09:28:12;;;;;;;;;;;17.70;99.90;;;;;;5021594;28;19941;-66
2023/08/31 09:30:41;;;;;;;;;;;17.90;99.90;;;;;;5023306;28;19929;-65
2023/08/31 09:33:09;;;;;;;;;;;18.00;99.90;;;;;;5019399;28;19941;-66
2023/08/31 09:35:41;;;;;;;;;;;18.10;99.90;;;;;;5021196;28;19979;-65
2023/08/31 09:38:10;;;;;;;;;;;18.00;99.90;;;;;;5022965;28;20031;-65
2023/08/31 09:40:39;;;;;;;;;;;18.00;99.90;;;;;;5021919;28;19964;-65
2023/08/31 09:43:08;;;;;;;;;;;17.80;99.90;;;;;;5019109;28;19929;-65
2023/08/31 09:45:36;;;;;;;;;;;17.70;99.90;;;;;;5022653;28;20494;-65
2023/08/31 09:48:14;;;;;;;;;;;17.60;99.90;;;;;;5021022;28;19929;-65
2023/08/31 09:50:44;;;;;;;;;;;17.70;99.90;;;;;;5022852;28;20478;-64
2023/08/31 09:53:12;;;;;;;;;;;18.00;99.90;;;;;;5019533;28;19956;-65
2023/08/31 09:55:42;;;;;;;;;;;18.60;99.90;;;;;;5022607;28;19929;-63
2023/08/31 09:58:10;;;;;;;;;;;18.70;99.90;;;;;;5022030;28;19933;-65
2023/08/31 10:00:40;;;;;;;;;;;18.90;99.90;;;;;;5022804;28;19963;-65
2023/08/31 10:03:08;;;;;;;;;;;18.80;99.90;;;;;;5021162;28;19933;-64
2023/08/31 10:05:36;;;;;;;;;;;18.70;99.90;;;;;;5022853;28;19988;-65
2023/08/31 10:08:05;;;;;;;;;;;18.60;99.90;;;;;;5021564;28;19929;-66
2023/08/31 10:10:34;;;;;;;;;;;18.40;99.90;;;;;;5023706;28;20367;-64
2023/08/31 10:13:03;;;;;;;;;;;18.40;99.90;;;;;;5018374;28;19940;-65
2023/08/31 10:15:32;;;;;;;;;;;18.50;99.90;;;;;;5021904;28;19941;-65
2023/08/31 10:18:01;;;;;;;;;;;18.90;99.90;;;;;;5022818;28;19933;-64
2023/08/31 10:20:31;;;;;;;;;;;19.00;99.90;;;;;;5021823;28;19933;-64
2023/08/31 10:22:59;;;;;;;;;;;19.10;99.90;;;;;;5020306;28;19996;-65
2023/08/31 10:25:47;;;;;;;;;;;19.20;99.90;;;;;;5021747;28;20027;-65
2023/08/31 10:28:19;;;;;;;;;;;18.90;99.90;;;;;;5021119;28;20430;-64
2023/08/31 10:31:00;;;;;;;;;;;18.90;99.90;;;;;;5020982;28;19933;-65
2023/08/31 10:33:28;;;;;;;;;;;19.00;99.90;;;;;;5017974;28;19940;-65
2023/08/31 10:35:57;;;;;;;;;;;18.90;99.90;;;;;;5020615;28;19975;-62
2023/08/31 10:38:26;;;;;;;;;;;18.90;99.90;;;;;;5020738;28;19986;-66
2023/08/31 10:41:02;;;;;;;;;;;18.90;99.90;;;;;;5021035;28;19932;-65
2023/08/31 10:43:45;;;;;;;;;;;19.00;99.90;;;;;;5018241;28;20489;-64
2023/08/31 10:46:32;;;;;;;;;;;19.00;99.90;;;;;;5020331;28;19932;-64
2023/08/31 10:49:01;;;;;;;;;;;19.20;99.90;;;;;;5019549;28;20363;-65
2023/08/31 10:51:29;;;;;;;;;;;19.60;99.90;;;;;;5019041;28;19940;-63
2023/08/31 10:54:09;;;;;;;;;;;19.70;99.90;;;;;;5018574;28;20316;-65
2023/08/31 10:56:56;;;;;;;;;;;19.70;99.90;;;;;;5019736;28;19933;-62
2023/08/31 10:59:26;;;;;;;;;;;19.70;99.90;;;;;;5016374;28;20359;-66
2023/08/31 11:01:54;;;;;;;;;;;19.80;99.90;;;;;;5017228;28;19925;-64
2023/08/31 11:04:23;;;;;;;;;;;19.80;99.90;;;;;;5019622;28;20151;-64
2023/08/31 11:07:05;;;;;;;;;;;19.90;99.90;;;;;;5020633;28;19933;-65
2023/08/31 11:09:34;;;;;;;;;;;20.00;99.90;;;;;;5019418;28;20388;-63
2023/08/31 11:12:02;;;;;;;;;;;19.90;99.90;;;;;;5018262;28;19937;-62
2023/08/31 11:14:31;;;;;;;;;;;19.90;99.90;;;;;;5018371;28;19933;-65
2023/08/31 11:17:00;;;;;;;;;;;20.30;99.90;;;;;;5018763;28;19929;-66
2023/08/31 11:19:28;;;;;;;;;;;21.10;99.90;;;;;;5019902;28;20713;-66
2023/08/31 11:21:56;;;;;;;;;;;21.60;99.90;;;;;;5019391;28;19990;-63
2023/08/31 11:24:24;;;;;;;;;;;21.60;99.90;;;;;;5018119;28;19940;-66
2023/08/31 11:26:52;;;;;;;;;;;21.60;99.90;;;;;;5020087;28;19933;-66
2023/08/31 11:29:20;;;;;;;;;;;21.40;99.90;;;;;;5018297;28;19932;-65
2023/08/31 11:31:49;;;;;;;;;;;21.00;99.90;;;;;;5019921;28;19933;-64
2023/08/31 11:34:18;;;;;;;;;;;20.80;99.90;;;;;;5020141;28;20072;-64
2023/08/31 11:36:46;;;;;;;;;;;20.70;99.90;;;;;;5019653;28;20028;-67
2023/08/31 11:39:14;;;;;;;;;;;20.70;99.90;;;;;;5019486;28;19933;-65
2023/08/31 11:41:43;;;;;;;;;;;20.70;99.90;;;;;;5017586;28;19933;-65
2023/08/31 11:44:12;;;;;;;;;;;20.60;99.90;;;;;;5019305;28;20364;-65
2023/08/31 11:46:40;;;;;;;;;;;20.30;99.90;;;;;;5019395;28;19933;-63
2023/08/31 11:49:10;;;;;;;;;;;20.10;99.90;;;;;;5017857;28;19932;-66
2023/08/31 11:51:38;;;;;;;;;;;20.00;99.90;;;;;;5016906;28;19937;-67
2023/08/31 11:54:06;;;;;;;;;;;19.90;99.90;;;;;;5020203;28;19933;-65
2023/08/31 11:56:43;;;;;;;;;;;19.80;99.90;;;;;;5020464;28;19933;-64
2023/08/31 11:59:12;;;;;;;;;;;20.40;99.90;;;;;;5019729;28;19983;-65
2023/08/31 12:01:41;;;;;;;;;;;21.30;99.90;;;;;;5017893;28;19933;-65
2023/08/31 12:04:14;;;;;;;;;;;21.90;99.90;;;;;;5019311;28;20404;-65
2023/08/31 12:06:43;;;;;;;;;;;22.30;99.90;;;;;;5018277;28;19940;-64
2023/08/31 12:09:11;;;;;;;;;;;23.30;99.90;;;;;;5019268;28;19933;-66
2023/08/31 12:11:39;;;;;;;;;;;23.80;99.90;;;;;;5018191;28;19937;-65
2023/08/31 12:14:19;;;;;;;;;;;23.80;99.90;;;;;;5017072;28;19940;-66
2023/08/31 12:16:47;;;;;;;;;;;24.10;99.90;;;;;;5020129;28;19941;-65
2023/08/31 12:19:16;;;;;;;;;;;24.50;99.90;;;;;;5019014;28;19944;-66
2023/08/31 12:21:45;;;;;;;;;;;25.00;97.40;;;;;;5018021;28;19944;-65
2023/08/31 12:24:13;;;;;;;;;;;24.90;98.60;;;;;;5019871;28;19937;-65
2023/08/31 12:26:41;;;;;;;;;;;24.80;97.10;;;;;;5020944;28;19935;-65
2023/08/31 12:29:08;;;;;;;;;;;24.40;96.30;;;;;;5020493;28;20666;-65
2023/08/31 12:31:37;;;;;;;;;;;23.70;96.30;;;;;;5016558;28;20311;-64
2023/08/31 12:34:06;;;;;;;;;;;22.90;97.80;;;;;;5019454;28;19999;-65
2023/08/31 12:36:37;;;;;;;;;;;22.70;98.50;;;;;;5020303;28;19933;-65
2023/08/31 12:39:06;;;;;;;;;;;22.30;98.60;;;;;;5019878;28;20382;-66
2023/08/31 12:41:34;;;;;;;;;;;22.10;99.90;;;;;;5017404;28;19940;-66
2023/08/31 12:44:03;;;;;;;;;;;22.00;99.90;;;;;;5018061;28;19933;-65
2023/08/31 12:46:30;;;;;;;;;;;21.90;99.90;;;;;;5021340;28;19933;-66
2023/08/31 12:48:58;;;;;;;;;;;21.60;99.90;;;;;;5021875;28;20355;-65
2023/08/31 12:51:26;;;;;;;;;;;21.30;99.10;;;;;;5021665;28;19940;-67
2023/08/31 12:53:55;;;;;;;;;;;20.90;99.30;;;;;;5023578;28;20376;-65
2023/08/31 12:56:23;;;;;;;;;;;20.70;99.90;;;;;;5022279;28;19925;-65
2023/08/31 12:58:51;;;;;;;;;;;20.60;99.90;;;;;;5023231;28;19968;-65
2023/08/31 13:01:19;;;;;;;;;;;20.60;99.90;;;;;;5021922;28;19991;-66
2023/08/31 13:03:47;;;;;;;;;;;20.60;99.90;;;;;;5022089;28;19933;-66
2023/08/31 13:06:16;;;;;;;;;;;20.60;99.90;;;;;;5023260;28;19933;-65
2023/08/31 13:08:45;;;;;;;;;;;20.90;99.90;;;;;;5021606;28;19968;-65
2023/08/31 13:11:14;;;;;;;;;;;21.60;99.90;;;;;;5021867;28;19937;-65
2023/08/31 13:13:42;;;;;;;;;;;22.40;98.30;;;;;;5024493;28;20012;-66
2023/08/31 13:16:10;;;;;;;;;;;23.20;97.60;;;;;;5020993;28;19933;-65
2023/08/31 13:18:37;;;;;;;;;;;23.80;94.80;;;;;;5021978;28;20277;-66
2023/08/31 13:21:05;;;;;;;;;;;24.30;94.70;;;;;;5021365;28;20018;-65
2023/08/31 13:23:33;;;;;;;;;;;24.70;93.40;;;;;;5021384;28;19947;-66
2023/08/31 13:26:01;;;;;;;;;;;25.00;93.80;;;;;;5022962;28;19933;-65
2023/08/31 13:28:30;;;;;;;;;;;25.00;93.30;;;;;;5023622;28;19933;-66
2023/08/31 13:31:00;;;;;;;;;;;25.50;93.40;;;;;;5023006;28;19937;-67
2023/08/31 13:33:29;;;;;;;;;;;25.20;92.30;;;;;;5019759;28;19940;-66
2023/08/31 13:35:57;;;;;;;;;;;25.10;92.80;;;;;;5020496;28;19935;-65
2023/08/31 13:38:25;;;;;;;;;;;25.30;92.30;;;;;;5022174;28;19968;-66
2023/08/31 13:40:55;;;;;;;;;;;25.80;92.20;;;;;;5023376;28;19979;-66
2023/08/31 13:43:23;;;;;;;;;;;26.10;92.20;;;;;;5019717;28;19925;-67
2023/08/31 13:45:52;;;;;;;;;;;26.00;90.50;;;;;;5022945;28;20423;-66
2023/08/31 13:48:22;;;;;;;;;;;25.10;91.00;;;;;;5022493;28;19931;-66
2023/08/31 13:50:50;;;;;;;;;;;24.70;92.90;;;;;;5021909;28;19929;-66
2023/08/31 13:53:18;;;;;;;;;;;24.90;92.80;;;;;;5019277;28;20557;-67
2023/08/31 13:55:45;;;;;;;;;;;25.20;91.40;;;;;;5022351;28;19937;-66
2023/08/31 13:58:13;;;;;;;;;;;25.70;90.60;;;;;;5021510;28;19929;-66
2023/08/31 14:00:42;;;;;;;;;;;25.60;89.00;;;;;;5020936;28;20403;-66
2023/08/31 14:03:11;;;;;;;;;;;25.40;90.20;;;;;;5017780;28;20078;-66
2023/08/31 14:05:39;;;;;;;;;;;25.30;90.60;;;;;;5019593;28;20014;-66
2023/08/31 14:08:06;;;;;;;;;;;25.50;89.80;;;;;;5022511;28;20691;-66
2023/08/31 14:10:34;;;;;;;;;;;25.60;88.70;;;;;;5023525;28;19933;-66
2023/08/31 14:13:03;;;;;;;;;;;25.50;87.80;;;;;;5021503;28;19929;-65
2023/08/31 14:15:30;;;;;;;;;;;25.60;87.70;;;;;;5022971;28;19933;-66
2023/08/31 14:17:58;;;;;;;;;;;25.70;86.30;;;;;;5023768;28;20469;-66
2023/08/31 14:20:28;;;;;;;;;;;26.10;85.40;;;;;;5023917;28;19933;-66
2023/08/31 14:22:55;;;;;;;;;;;25.90;86.20;;;;;;5020738;28;20567;-66
2023/08/31 14:25:25;;;;;;;;;;;25.20;86.80;;;;;;5023405;28;19925;-66
2023/08/31 14:27:53;;;;;;;;;;;24.50;87.90;;;;;;5023111;28;19929;-68